Time;durP1;ratioP1;P1;durP2;ratioP2;P2;SDS_P1;SDS_P2;PMS_P1;PMS_P2;Temp;Humidity;BMP_temperature;BMP_pressure;BME280_temperature;BME280_humidity;BME280_pressure;Samples;Min_cycle;Max_cycle;Signal;HPM_P1;HPM_P2
2023/12/31 00:00:09;;;;;;;61.47;36.53;;;8.20;75.30;;;;;;5097835;28;20035;-64
2023/12/31 00:02:36;;;;;;;64.35;34.35;;;8.20;75.40;;;;;;5097138;28;20031;-64
2023/12/31 00:05:03;;;;;;;60.65;31.33;;;8.20;75.40;;;;;;5087182;28;20047;-64
2023/12/31 00:07:30;;;;;;;57.42;30.95;;;8.20;75.30;;;;;;5077108;28;20121;-64
2023/12/31 00:09:57;;;;;;;59.92;32.38;;;8.20;75.30;;;;;;5077078;28;20025;-64
2023/12/31 00:12:23;;;;;;;62.45;32.53;;;8.20;75.30;;;;;;5076707;28;20025;-64
2023/12/31 00:14:49;;;;;;;56.92;31.02;;;8.20;75.40;;;;;;5076698;28;20426;-64
2023/12/31 00:17:15;;;;;;;62.85;33.15;;;8.20;75.20;;;;;;5076933;28;20021;-64
2023/12/31 00:19:41;;;;;;;57.70;32.08;;;8.20;74.90;;;;;;5076876;28;20103;-63
2023/12/31 00:22:08;;;;;;;51.00;27.75;;;8.20;74.80;;;;;;5076577;28;20100;-64
2023/12/31 00:24:34;;;;;;;56.38;30.30;;;8.20;74.90;;;;;;5076911;28;20378;-63
2023/12/31 00:27:01;;;;;;;65.35;33.72;;;8.20;74.90;;;;;;5077021;28;20082;-65
2023/12/31 00:29:29;;;;;;;62.65;32.55;;;8.20;75.00;;;;;;5076725;28;20063;-63
2023/12/31 00:31:56;;;;;;;58.13;31.63;;;8.20;74.60;;;;;;5076575;28;20047;-64
2023/12/31 00:34:22;;;;;;;56.40;29.98;;;8.20;74.70;;;;;;5076189;28;20040;-63
2023/12/31 00:36:51;;;;;;;55.80;31.63;;;8.20;74.70;;;;;;5076290;28;20013;-63
2023/12/31 00:39:17;;;;;;;53.10;27.50;;;8.20;74.60;;;;;;5076223;28;20024;-63
2023/12/31 00:41:43;;;;;;;47.92;27.20;;;8.10;74.50;;;;;;5076713;28;20032;-63
2023/12/31 00:44:09;;;;;;;43.00;24.30;;;8.10;74.60;;;;;;5076322;28;20033;-65
2023/12/31 00:46:35;;;;;;;46.25;24.75;;;8.10;74.70;;;;;;5076086;28;20028;-65
2023/12/31 00:49:01;;;;;;;48.25;25.35;;;8.20;74.70;;;;;;5076620;28;20028;-65
2023/12/31 00:51:27;;;;;;;44.30;24.70;;;8.20;74.70;;;;;;5075966;28;20024;-65
2023/12/31 00:53:53;;;;;;;45.55;24.10;;;8.10;74.60;;;;;;5076356;28;20037;-65
2023/12/31 00:56:20;;;;;;;40.97;22.42;;;8.10;74.50;;;;;;5075757;28;20426;-65
2023/12/31 00:58:47;;;;;;;43.70;23.10;;;8.10;74.40;;;;;;5075930;28;20129;-64
2023/12/31 01:01:13;;;;;;;43.67;23.73;;;8.10;74.40;;;;;;5076317;28;20360;-65
2023/12/31 01:03:39;;;;;;;45.38;23.75;;;8.10;74.40;;;;;;5076331;28;20035;-64
2023/12/31 01:06:07;;;;;;;47.30;25.25;;;8.10;74.30;;;;;;5075658;28;20063;-64
2023/12/31 01:08:33;;;;;;;45.33;25.30;;;8.00;74.20;;;;;;5075520;28;20033;-64
2023/12/31 01:10:59;;;;;;;48.28;26.90;;;7.90;74.30;;;;;;5075688;28;20078;-65
2023/12/31 01:13:25;;;;;;;49.33;26.40;;;7.90;74.20;;;;;;5075597;28;20425;-65
2023/12/31 01:15:51;;;;;;;52.40;27.10;;;7.90;74.00;;;;;;5075559;28;20096;-65
2023/12/31 01:18:18;;;;;;;47.78;26.23;;;7.80;74.00;;;;;;5075586;28;20095;-65
2023/12/31 01:20:43;;;;;;;47.35;25.02;;;7.70;74.00;;;;;;5076083;28;20052;-65
2023/12/31 01:23:09;;;;;;;44.20;23.63;;;7.60;74.20;;;;;;5075773;28;20048;-65
2023/12/31 01:25:36;;;;;;;43.78;22.85;;;7.60;74.50;;;;;;5075574;28;20082;-65
2023/12/31 01:28:02;;;;;;;43.53;23.73;;;7.60;74.70;;;;;;5075521;28;20099;-64
2023/12/31 01:30:29;;;;;;;42.88;21.98;;;7.50;74.70;;;;;;5075312;28;20399;-65
2023/12/31 01:32:56;;;;;;;45.35;24.25;;;7.50;74.90;;;;;;5075322;28;20024;-64
2023/12/31 01:35:22;;;;;;;42.08;21.58;;;7.50;75.00;;;;;;5075249;28;20031;-64
2023/12/31 01:37:48;;;;;;;39.15;22.63;;;7.50;74.90;;;;;;5075352;28;20021;-65
2023/12/31 01:40:14;;;;;;;37.22;21.05;;;7.50;75.10;;;;;;5075312;28;20036;-64
2023/12/31 01:42:40;;;;;;;40.60;20.52;;;7.50;75.20;;;;;;5075337;28;20153;-64
2023/12/31 01:45:07;;;;;;;37.10;20.17;;;7.50;75.30;;;;;;5075469;28;20166;-64
2023/12/31 01:50:27;;;;;;;40.78;22.25;;;7.60;75.40;;;;;;5230142;23;20067;-64
2023/12/31 01:52:55;;;;;;;38.75;21.95;;;7.60;75.60;;;;;;5055380;28;20173;-64
2023/12/31 01:55:21;;;;;;;41.08;21.88;;;7.60;75.40;;;;;;5038139;28;20156;-64
2023/12/31 01:57:47;;;;;;;40.80;22.08;;;7.60;75.40;;;;;;5693314;22;20174;-64
2023/12/31 02:00:14;;;;;;;47.30;24.17;;;7.60;75.50;;;;;;5075206;28;20029;-65
2023/12/31 02:02:46;;;;;;;42.17;23.45;;;7.60;75.50;;;;;;5075390;28;20028;-65
2023/12/31 02:05:12;;;;;;;43.03;23.70;;;7.60;75.40;;;;;;5075662;28;20092;-64
2023/12/31 02:07:38;;;;;;;41.42;21.95;;;7.70;75.50;;;;;;5075516;28;20021;-64
2023/12/31 02:10:05;;;;;;;43.42;23.95;;;7.70;75.40;;;;;;5075012;28;20034;-64
2023/12/31 02:12:31;;;;;;;50.72;26.17;;;7.60;75.40;;;;;;5074980;28;20551;-64
2023/12/31 02:14:57;;;;;;;51.22;28.38;;;7.60;75.50;;;;;;5075000;28;20017;-64
2023/12/31 02:17:23;;;;;;;51.88;27.42;;;7.60;75.70;;;;;;5074879;28;20032;-64
2023/12/31 02:19:49;;;;;;;50.55;25.77;;;7.70;75.70;;;;;;5075262;28;20017;-65
2023/12/31 02:22:15;;;;;;;51.55;26.50;;;7.60;75.70;;;;;;5060441;28;20024;-64
2023/12/31 02:24:49;;;;;;;52.67;27.40;;;7.60;75.70;;;;;;5078866;28;20441;-64
2023/12/31 02:27:15;;;;;;;50.28;27.38;;;7.60;75.70;;;;;;5078714;28;20368;-65
2023/12/31 02:29:41;;;;;;;47.88;26.67;;;7.60;75.80;;;;;;5079279;28;20043;-64
2023/12/31 02:32:07;;;;;;;49.25;26.95;;;7.70;75.80;;;;;;5078620;28;20012;-64
2023/12/31 02:34:33;;;;;;;52.97;28.83;;;7.70;75.70;;;;;;5078622;28;20031;-64
2023/12/31 02:36:59;;;;;;;53.22;28.08;;;7.70;75.70;;;;;;5079133;28;20042;-65
2023/12/31 02:39:26;;;;;;;50.45;26.48;;;7.70;75.80;;;;;;5078496;28;20028;-64
2023/12/31 02:41:52;;;;;;;49.28;27.58;;;7.70;75.80;;;;;;5078814;28;20065;-64
2023/12/31 02:44:19;;;;;;;47.83;26.98;;;7.70;75.90;;;;;;5078505;28;20388;-64
2023/12/31 02:46:45;;;;;;;53.92;29.00;;;7.70;76.00;;;;;;5078957;28;20020;-64
2023/12/31 02:49:11;;;;;;;52.70;26.92;;;7.70;76.00;;;;;;5078367;28;20326;-65
2023/12/31 02:51:38;;;;;;;52.20;27.17;;;7.70;76.10;;;;;;5079071;28;20029;-64
2023/12/31 02:54:04;;;;;;;55.83;29.45;;;7.80;76.10;;;;;;5078721;28;20028;-64
2023/12/31 02:56:30;;;;;;;47.97;27.80;;;7.80;76.00;;;;;;5357555;23;20473;-64
2023/12/31 02:58:56;;;;;;;47.55;27.02;;;7.80;76.10;;;;;;5078780;28;20025;-63
2023/12/31 03:01:22;;;;;;;52.90;27.02;;;7.80;76.10;;;;;;5078191;28;20506;-64
2023/12/31 03:03:48;;;;;;;50.40;28.02;;;7.80;76.10;;;;;;5078103;28;20096;-64
2023/12/31 03:06:15;;;;;;;56.28;30.35;;;7.80;76.10;;;;;;5078030;28;20040;-64
2023/12/31 03:08:41;;;;;;;49.80;27.50;;;7.80;76.10;;;;;;5078263;28;20028;-64
2023/12/31 03:11:08;;;;;;;48.47;25.92;;;7.80;76.10;;;;;;5078522;28;20025;-64
2023/12/31 03:13:34;;;;;;;53.60;27.75;;;7.80;76.10;;;;;;5060220;28;20115;-64
2023/12/31 03:16:07;;;;;;;50.75;27.70;;;7.90;76.10;;;;;;5077848;28;20024;-64
2023/12/31 03:18:33;;;;;;;49.72;27.05;;;7.90;76.00;;;;;;5060143;28;20016;-64
2023/12/31 03:20:59;;;;;;;46.72;26.05;;;7.80;76.10;;;;;;5077803;28;20170;-64
2023/12/31 03:23:25;;;;;;;51.63;27.30;;;7.90;76.10;;;;;;5077754;28;20043;-64
2023/12/31 03:25:51;;;;;;;53.20;27.60;;;7.90;76.10;;;;;;5077674;28;20360;-64
2023/12/31 03:28:18;;;;;;;45.17;25.92;;;7.90;76.10;;;;;;5077658;28;20017;-64
2023/12/31 03:30:44;;;;;;;47.63;25.70;;;7.90;76.10;;;;;;5077658;28;20024;-63
2023/12/31 03:33:10;;;;;;;49.67;27.60;;;7.90;76.10;;;;;;5077328;28;20093;-64
2023/12/31 03:35:36;;;;;;;50.67;27.45;;;7.90;76.20;;;;;;5077947;28;20116;-64
2023/12/31 03:38:02;;;;;;;49.25;26.55;;;7.90;76.20;;;;;;5077705;28;20044;-64
2023/12/31 03:40:28;;;;;;;48.88;27.15;;;7.90;76.40;;;;;;5077379;28;20021;-64
2023/12/31 03:42:54;;;;;;;48.42;25.63;;;7.90;76.40;;;;;;5077312;28;20070;-64
2023/12/31 03:45:21;;;;;;;52.33;27.80;;;7.90;76.30;;;;;;5077296;28;20103;-64
2023/12/31 03:47:47;;;;;;;49.70;27.98;;;7.90;76.30;;;;;;5077785;28;20025;-64
2023/12/31 03:50:16;;;;;;;52.20;28.38;;;8.00;76.20;;;;;;5077699;28;20501;-64
2023/12/31 03:52:42;;;;;;;49.20;27.85;;;8.00;76.30;;;;;;5077080;28;20024;-64
2023/12/31 03:55:08;;;;;;;52.33;27.65;;;7.90;76.20;;;;;;5077623;28;20421;-64
2023/12/31 03:57:35;;;;;;;48.42;27.63;;;7.90;76.30;;;;;;5077035;28;20052;-64
2023/12/31 04:00:03;;;;;;;54.30;28.40;;;7.90;76.40;;;;;;5076934;28;20387;-64
2023/12/31 04:02:29;;;;;;;49.35;27.85;;;8.00;76.40;;;;;;5077237;28;20115;-64
2023/12/31 04:04:56;;;;;;;54.25;28.35;;;8.00;76.20;;;;;;5077253;28;20056;-64
2023/12/31 04:07:22;;;;;;;48.63;27.13;;;7.90;76.20;;;;;;5312995;22;20132;-65
2023/12/31 04:09:48;;;;;;;51.40;27.75;;;8.00;76.10;;;;;;5036905;28;20036;-65
2023/12/31 04:12:14;;;;;;;50.70;27.50;;;8.00;76.20;;;;;;5037074;28;20025;-65
2023/12/31 04:14:40;;;;;;;50.00;27.15;;;7.90;76.20;;;;;;5036884;28;20029;-64
2023/12/31 04:17:06;;;;;;;50.15;27.80;;;8.00;76.20;;;;;;5026887;28;20022;-64
2023/12/31 04:19:32;;;;;;;47.45;26.45;;;8.00;76.20;;;;;;5016986;28;20109;-64
2023/12/31 04:21:58;;;;;;;53.03;27.52;;;8.00;76.30;;;;;;5016824;28;20096;-64
2023/12/31 04:24:24;;;;;;;48.83;26.45;;;8.00;76.40;;;;;;5016910;28;20037;-64
2023/12/31 04:26:51;;;;;;;49.67;26.05;;;8.00;76.30;;;;;;5016963;28;20410;-64
2023/12/31 04:29:17;;;;;;;47.90;25.90;;;8.00;76.30;;;;;;5016709;28;20063;-64
2023/12/31 04:31:47;;;;;;;46.50;25.45;;;8.00;76.30;;;;;;5017281;28;20022;-65
2023/12/31 04:34:14;;;;;;;48.15;26.70;;;8.00;76.20;;;;;;5016833;28;20030;-65
2023/12/31 04:36:46;;;;;;;51.45;26.00;;;8.00;76.40;;;;;;5017093;28;20049;-64
2023/12/31 04:39:13;;;;;;;51.13;27.83;;;8.00;76.40;;;;;;5016851;28;20080;-65
2023/12/31 04:41:39;;;;;;;46.00;25.88;;;8.00;76.40;;;;;;5016570;28;20025;-64
2023/12/31 04:44:05;;;;;;;50.35;27.55;;;8.00;76.30;;;;;;5015742;28;20026;-65
2023/12/31 04:46:31;;;;;;;52.55;27.42;;;8.00;76.20;;;;;;5016352;28;20025;-63
2023/12/31 04:48:57;;;;;;;52.00;27.38;;;8.00;76.30;;;;;;5016386;28;20040;-65
2023/12/31 04:51:27;;;;;;;52.22;27.98;;;8.00;76.30;;;;;;5016650;28;20041;-64
2023/12/31 04:53:54;;;;;;;45.78;24.38;;;8.00;76.30;;;;;;5016572;28;20037;-65
2023/12/31 04:56:21;;;;;;;52.15;26.45;;;8.00;76.40;;;;;;5016261;28;20109;-65
2023/12/31 04:58:52;;;;;;;45.25;25.10;;;8.10;76.40;;;;;;5016258;28;20034;-65
2023/12/31 05:01:18;;;;;;;46.42;25.08;;;8.10;76.30;;;;;;5016169;28;20018;-65
2023/12/31 05:03:46;;;;;;;46.25;24.50;;;8.10;76.40;;;;;;5016123;28;20033;-65
2023/12/31 05:06:13;;;;;;;46.50;24.92;;;8.10;76.40;;;;;;5016134;28;20034;-64
2023/12/31 05:08:45;;;;;;;47.85;25.63;;;8.10;76.40;;;;;;5016076;28;20047;-65
2023/12/31 05:11:12;;;;;;;46.00;26.38;;;8.10;76.40;;;;;;5016038;28;20456;-65
2023/12/31 05:13:40;;;;;;;41.63;24.38;;;8.10;76.50;;;;;;5016448;28;20037;-65
2023/12/31 05:16:07;;;;;;;49.70;27.10;;;8.10;76.60;;;;;;5015921;28;20032;-64
2023/12/31 05:18:34;;;;;;;44.72;25.05;;;8.10;76.50;;;;;;5015937;28;20026;-64
2023/12/31 05:21:01;;;;;;;47.70;25.63;;;8.10;76.60;;;;;;5015843;28;20026;-64
2023/12/31 05:23:30;;;;;;;48.55;26.17;;;8.20;76.60;;;;;;5015881;28;20461;-65
2023/12/31 05:25:56;;;;;;;44.95;25.13;;;8.20;76.60;;;;;;5015977;28;20393;-64
2023/12/31 05:28:22;;;;;;;49.90;26.20;;;8.20;76.50;;;;;;5015824;28;20100;-65
2023/12/31 05:30:49;;;;;;;44.70;25.05;;;8.20;76.60;;;;;;5015737;28;20453;-65
2023/12/31 05:33:15;;;;;;;44.00;24.90;;;8.20;76.50;;;;;;5015629;28;20029;-64
2023/12/31 05:35:42;;;;;;;44.70;24.23;;;8.20;76.60;;;;;;5015920;28;20112;-64
2023/12/31 05:38:08;;;;;;;42.45;23.98;;;8.20;76.60;;;;;;5015585;28;20026;-64
2023/12/31 05:40:34;;;;;;;48.90;25.50;;;8.20;76.60;;;;;;5015641;28;20022;-64
2023/12/31 05:43:01;;;;;;;43.42;24.00;;;8.20;76.50;;;;;;5016117;28;20037;-64
2023/12/31 05:45:27;;;;;;;46.63;24.17;;;8.20;76.50;;;;;;5015570;28;20140;-65
2023/12/31 05:47:54;;;;;;;45.05;25.25;;;8.20;76.70;;;;;;5015502;28;20069;-64
2023/12/31 05:50:20;;;;;;;47.72;24.80;;;8.20;76.60;;;;;;5016063;28;20482;-65
2023/12/31 05:52:46;;;;;;;45.00;23.88;;;8.20;76.60;;;;;;5015307;28;20026;-63
2023/12/31 05:55:12;;;;;;;41.25;24.42;;;8.20;76.70;;;;;;5018067;28;20390;-65
2023/12/31 05:57:40;;;;;;;42.10;24.15;;;8.20;76.80;;;;;;5021955;28;20029;-65
2023/12/31 06:00:08;;;;;;;45.42;24.13;;;8.30;76.80;;;;;;5022229;28;20104;-65
2023/12/31 06:02:35;;;;;;;45.63;24.55;;;8.30;76.70;;;;;;5022499;28;20346;-65
2023/12/31 06:05:02;;;;;;;43.08;24.15;;;8.30;76.70;;;;;;5021886;28;20446;-64
2023/12/31 06:07:28;;;;;;;46.08;25.20;;;8.30;76.60;;;;;;5021938;28;20117;-63
2023/12/31 06:09:54;;;;;;;46.85;25.52;;;8.20;76.70;;;;;;5022172;28;20029;-64
2023/12/31 06:12:21;;;;;;;46.75;25.67;;;8.30;76.70;;;;;;5022279;28;20025;-65
2023/12/31 06:14:47;;;;;;;42.92;24.80;;;8.30;76.60;;;;;;5022383;28;20057;-64
2023/12/31 06:17:14;;;;;;;40.22;22.48;;;8.30;76.70;;;;;;5021744;28;20076;-65
2023/12/31 06:19:40;;;;;;;50.50;26.65;;;8.30;76.60;;;;;;5022381;28;20029;-64
2023/12/31 06:22:06;;;;;;;51.05;27.20;;;8.30;76.60;;;;;;5021730;28;20041;-65
2023/12/31 06:24:33;;;;;;;46.35;27.27;;;8.30;76.70;;;;;;5022024;28;20030;-65
2023/12/31 06:26:59;;;;;;;47.38;26.38;;;8.30;76.70;;;;;;5022012;28;20358;-65
2023/12/31 06:29:26;;;;;;;47.72;25.52;;;8.30;76.60;;;;;;5021654;28;20562;-65
2023/12/31 06:31:52;;;;;;;45.47;24.50;;;8.20;76.60;;;;;;5021968;28;20025;-65
2023/12/31 06:34:18;;;;;;;48.58;25.50;;;8.20;76.60;;;;;;5021852;28;20084;-65
2023/12/31 06:36:44;;;;;;;47.20;25.50;;;8.20;76.80;;;;;;5022115;28;20026;-64
2023/12/31 06:39:10;;;;;;;43.70;25.50;;;8.20;76.90;;;;;;5021646;28;20443;-64
2023/12/31 06:41:37;;;;;;;41.00;22.85;;;8.20;76.80;;;;;;5021608;28;20033;-64
2023/12/31 06:44:03;;;;;;;47.22;25.85;;;8.20;76.80;;;;;;5021545;28;20033;-64
2023/12/31 06:46:30;;;;;;;48.88;26.23;;;8.20;76.90;;;;;;5021785;28;20060;-65
2023/12/31 06:48:57;;;;;;;51.95;27.42;;;8.20;76.80;;;;;;5021538;28;20028;-64
2023/12/31 06:51:23;;;;;;;44.97;24.92;;;8.20;77.00;;;;;;5021822;28;20442;-64
2023/12/31 06:53:49;;;;;;;47.42;27.15;;;8.20;77.00;;;;;;5021463;28;20068;-64
2023/12/31 06:56:18;;;;;;;51.83;27.58;;;8.20;77.00;;;;;;5021435;28;20026;-64
2023/12/31 06:58:45;;;;;;;62.30;32.00;;;8.20;77.00;;;;;;5021851;28;20398;-64
2023/12/31 07:01:13;;;;;;;59.85;31.70;;;8.20;76.90;;;;;;5021466;28;20080;-64
2023/12/31 07:03:39;;;;;;;52.45;28.85;;;8.20;76.90;;;;;;5021637;28;20096;-64
2023/12/31 07:06:07;;;;;;;49.38;26.10;;;8.20;77.00;;;;;;5020518;28;20033;-63
2023/12/31 07:08:34;;;;;;;55.53;28.88;;;8.20;77.00;;;;;;5017778;28;20052;-64
2023/12/31 07:11:00;;;;;;;54.25;29.20;;;8.20;76.90;;;;;;5018258;28;20109;-64
2023/12/31 07:13:27;;;;;;;46.88;25.30;;;8.20;76.90;;;;;;5018365;28;20076;-64
2023/12/31 07:15:58;;;;;;;44.45;24.33;;;8.20;76.90;;;;;;5018721;28;20030;-64
2023/12/31 07:18:25;;;;;;;45.58;24.92;;;8.20;77.00;;;;;;5018410;28;20105;-64
2023/12/31 07:20:55;;;;;;;49.30;26.10;;;8.20;77.10;;;;;;5018015;28;20413;-64
2023/12/31 07:23:23;;;;;;;45.20;24.58;;;8.20;76.90;;;;;;5017983;28;20482;-64
2023/12/31 07:25:49;;;;;;;44.83;25.33;;;8.20;77.10;;;;;;5017982;28;20026;-64
2023/12/31 07:28:15;;;;;;;43.83;23.85;;;8.20;77.20;;;;;;5017849;28;20022;-64
2023/12/31 07:30:43;;;;;;;41.00;23.73;;;8.20;77.20;;;;;;5018142;28;20033;-64
2023/12/31 07:33:10;;;;;;;43.15;23.23;;;8.20;77.20;;;;;;5017974;28;20026;-64
2023/12/31 07:35:36;;;;;;;47.83;24.05;;;8.30;77.30;;;;;;5018290;28;20049;-64
2023/12/31 07:38:05;;;;;;;43.13;23.90;;;8.30;77.30;;;;;;5017705;28;20018;-64
2023/12/31 07:40:32;;;;;;;46.95;26.02;;;8.30;77.30;;;;;;5017623;28;20121;-64
2023/12/31 07:42:58;;;;;;;47.50;25.42;;;8.40;77.30;;;;;;5018193;28;20100;-64
2023/12/31 07:45:24;;;;;;;47.63;25.15;;;8.40;77.40;;;;;;5018142;28;20080;-65
2023/12/31 07:47:50;;;;;;;45.78;26.50;;;8.40;77.40;;;;;;5018045;28;20049;-64
2023/12/31 07:50:16;;;;;;;49.97;26.42;;;8.50;77.40;;;;;;5017518;28;20022;-65
2023/12/31 07:52:42;;;;;;;49.25;26.55;;;8.50;77.50;;;;;;5017451;28;20026;-65
2023/12/31 07:55:09;;;;;;;45.30;25.05;;;8.50;77.60;;;;;;5017452;28;20018;-65
2023/12/31 07:57:37;;;;;;;52.35;27.27;;;8.50;77.40;;;;;;5017483;28;20022;-65
2023/12/31 08:00:05;;;;;;;44.42;23.90;;;8.60;77.30;;;;;;5017873;28;20450;-64
2023/12/31 08:02:32;;;;;;;41.70;22.48;;;8.60;77.30;;;;;;5017830;28;20100;-64
2023/12/31 08:04:58;;;;;;;40.47;22.45;;;8.60;77.10;;;;;;5017319;28;20018;-64
2023/12/31 08:07:25;;;;;;;42.67;22.50;;;8.70;77.20;;;;;;5017237;28;20129;-65
2023/12/31 08:09:52;;;;;;;39.50;21.13;;;8.70;77.00;;;;;;5017222;28;20033;-65
2023/12/31 08:12:19;;;;;;;37.85;20.13;;;8.70;77.20;;;;;;5017043;28;20045;-65
2023/12/31 08:14:45;;;;;;;36.80;20.17;;;8.80;77.20;;;;;;5017505;28;20033;-65
2023/12/31 08:17:11;;;;;;;41.20;22.10;;;8.90;77.10;;;;;;5016992;28;20113;-65
2023/12/31 08:19:38;;;;;;;39.25;21.38;;;8.90;77.00;;;;;;5016055;28;20029;-63
2023/12/31 08:22:06;;;;;;;39.45;21.65;;;8.90;76.80;;;;;;5016953;28;20018;-65
2023/12/31 08:24:33;;;;;;;40.67;22.60;;;9.00;76.60;;;;;;5017106;28;20040;-65
2023/12/31 08:26:59;;;;;;;39.35;23.73;;;9.10;76.60;;;;;;5017116;28;20529;-64
2023/12/31 08:29:25;;;;;;;49.45;27.70;;;9.10;76.60;;;;;;5016769;28;20026;-65
2023/12/31 08:31:54;;;;;;;46.53;29.13;;;9.20;76.60;;;;;;5016655;28;20359;-64
2023/12/31 08:34:21;;;;;;;40.40;24.55;;;9.20;76.50;;;;;;5016693;28;20026;-65
2023/12/31 08:36:47;;;;;;;40.47;23.23;;;9.30;76.60;;;;;;5016618;28;20021;-65
2023/12/31 08:39:15;;;;;;;40.78;21.27;;;9.40;76.50;;;;;;5016864;28;20029;-65
2023/12/31 08:41:41;;;;;;;38.20;20.80;;;9.40;76.30;;;;;;5016524;28;20064;-65
2023/12/31 08:44:07;;;;;;;36.53;19.92;;;9.40;76.40;;;;;;5016776;28;20033;-65
2023/12/31 08:46:34;;;;;;;37.03;21.25;;;9.40;76.30;;;;;;5016444;28;20025;-65
2023/12/31 08:49:01;;;;;;;37.80;21.25;;;9.50;76.30;;;;;;5016438;28;20042;-65
2023/12/31 08:51:27;;;;;;;35.78;20.40;;;9.50;76.20;;;;;;5016379;28;20426;-65
2023/12/31 08:53:55;;;;;;;35.95;20.60;;;9.60;76.20;;;;;;5016528;28;20034;-65
2023/12/31 08:56:21;;;;;;;40.70;21.88;;;9.60;76.10;;;;;;5016262;28;20450;-65
2023/12/31 08:58:47;;;;;;;37.63;21.42;;;9.60;76.00;;;;;;5016805;28;20037;-65
2023/12/31 09:01:16;;;;;;;33.35;20.25;;;9.60;75.90;;;;;;5016510;28;20057;-65
2023/12/31 09:03:42;;;;;;;35.25;19.75;;;9.60;76.00;;;;;;5016736;28;20040;-65
2023/12/31 09:09:04;;;;;;;35.70;20.30;;;9.70;76.00;;;;;;5261862;22;20074;-72
2023/12/31 09:11:31;;;;;;;38.25;21.13;;;9.70;76.10;;;;;;5075671;28;20054;-72
2023/12/31 09:13:59;;;;;;;35.20;19.67;;;9.70;76.00;;;;;;5075880;28;20043;-72
2023/12/31 09:16:26;;;;;;;32.90;19.15;;;9.70;75.90;;;;;;5074653;28;20029;-73
2023/12/31 09:18:52;;;;;;;35.17;20.83;;;9.60;75.90;;;;;;5075528;28;20439;-74
2023/12/31 09:21:19;;;;;;;32.70;18.17;;;9.70;75.90;;;;;;5076045;28;20059;-73
2023/12/31 09:23:45;;;;;;;31.35;18.13;;;9.70;75.90;;;;;;5075534;28;20036;-70
2023/12/31 09:26:12;;;;;;;31.85;18.40;;;9.70;75.90;;;;;;5075476;28;20104;-71
2023/12/31 09:28:42;;;;;;;31.98;18.23;;;9.70;75.80;;;;;;5075405;28;20326;-72
2023/12/31 09:31:08;;;;;;;37.22;19.33;;;9.70;75.80;;;;;;5074932;28;20024;-71
2023/12/31 09:33:35;;;;;;;35.22;19.25;;;9.70;75.70;;;;;;5075236;28;20032;-72
2023/12/31 09:36:05;;;;;;;35.63;18.73;;;9.80;75.70;;;;;;5075648;28;20062;-72
2023/12/31 09:38:32;;;;;;;29.90;17.15;;;9.80;75.80;;;;;;5075280;28;20032;-72
2023/12/31 09:40:58;;;;;;;28.83;17.58;;;9.90;75.80;;;;;;5075528;28;20085;-71
2023/12/31 09:43:27;;;;;;;32.33;17.38;;;9.90;75.70;;;;;;5075593;28;20035;-71
2023/12/31 09:45:57;;;;;;;32.67;18.13;;;9.90;75.20;;;;;;5075190;28;20110;-71
2023/12/31 09:48:24;;;;;;;32.45;17.95;;;9.90;75.10;;;;;;5075168;28;20043;-71
2023/12/31 09:50:51;;;;;;;31.08;17.23;;;9.90;75.10;;;;;;5075265;28;20024;-71
2023/12/31 09:53:22;;;;;;;30.40;18.27;;;9.90;75.00;;;;;;5075654;28;20425;-71
2023/12/31 09:55:51;;;;;;;31.23;16.85;;;9.90;74.80;;;;;;5075114;28;20361;-72
2023/12/31 09:58:20;;;;;;;28.90;16.17;;;10.00;74.60;;;;;;5075082;28;20070;-71
2023/12/31 10:00:46;;;;;;;30.88;17.02;;;9.90;74.40;;;;;;5075094;28;20104;-73
2023/12/31 10:03:13;;;;;;;42.50;23.08;;;10.00;74.50;;;;;;5075412;28;20024;-73
2023/12/31 10:05:42;;;;;;;31.08;19.48;;;9.90;74.40;;;;;;5075411;28;20100;-71
2023/12/31 10:08:09;;;;;;;31.80;17.58;;;10.00;74.50;;;;;;5074755;28;20044;-71
2023/12/31 10:10:38;;;;;;;32.92;18.05;;;10.00;74.50;;;;;;5075362;28;20441;-71
2023/12/31 10:13:09;;;;;;;34.13;19.27;;;10.00;74.60;;;;;;5074893;28;20453;-73
2023/12/31 10:15:36;;;;;;;32.47;18.90;;;10.10;74.60;;;;;;5058176;28;20435;-73
2023/12/31 10:18:04;;;;;;;30.90;17.88;;;10.10;74.50;;;;;;5075146;28;20025;-71
2023/12/31 10:20:30;;;;;;;33.60;17.33;;;10.20;74.60;;;;;;5347568;22;20049;-69
2023/12/31 10:23:01;;;;;;;32.03;17.88;;;10.20;74.70;;;;;;5074843;28;20090;-70
2023/12/31 10:25:28;;;;;;;33.35;19.70;;;10.20;74.70;;;;;;5075341;28;20353;-70
2023/12/31 10:27:55;;;;;;;36.60;20.38;;;10.20;74.70;;;;;;5075375;28;20032;-69
2023/12/31 10:30:22;;;;;;;34.53;19.63;;;10.20;74.60;;;;;;5074776;28;20029;-70
2023/12/31 10:32:49;;;;;;;41.50;22.10;;;10.30;74.50;;;;;;5075049;28;20020;-69
2023/12/31 10:35:21;;;;;;;32.72;20.20;;;10.30;74.60;;;;;;5074836;28;20047;-70
2023/12/31 10:38:05;;;;;;;35.55;19.58;;;10.30;74.50;;;;;;5074699;28;20444;-70
2023/12/31 10:40:35;;;;;;;37.53;21.13;;;10.30;74.50;;;;;;5057708;28;20025;-69
2023/12/31 10:43:07;;;;;;;33.47;17.65;;;10.40;74.40;;;;;;5077354;28;20078;-69
2023/12/31 10:45:33;;;;;;;30.75;19.02;;;10.40;74.40;;;;;;5078776;28;20024;-70
2023/12/31 10:48:04;;;;;;;39.03;21.08;;;10.50;74.20;;;;;;5078439;28;20092;-70
2023/12/31 10:50:32;;;;;;;31.48;18.00;;;10.50;74.20;;;;;;5078600;28;20036;-69
2023/12/31 10:53:02;;;;;;;29.98;17.85;;;10.60;74.10;;;;;;5078125;28;20487;-70
2023/12/31 10:55:29;;;;;;;31.25;18.60;;;10.60;74.20;;;;;;5078468;28;20107;-70
2023/12/31 10:57:57;;;;;;;32.25;17.75;;;10.70;74.00;;;;;;5077983;28;20353;-71
2023/12/31 11:00:24;;;;;;;30.73;17.67;;;10.70;73.90;;;;;;5078027;28;20024;-71
2023/12/31 11:02:53;;;;;;;29.92;18.05;;;10.70;73.70;;;;;;5078086;28;20146;-68
2023/12/31 11:05:21;;;;;;;34.40;18.90;;;10.80;73.60;;;;;;5077960;28;20029;-69
2023/12/31 11:07:49;;;;;;;28.02;16.83;;;10.80;73.50;;;;;;5078053;28;20035;-69
2023/12/31 11:10:16;;;;;;;32.78;17.90;;;10.80;73.20;;;;;;5078447;28;20036;-71
2023/12/31 11:12:48;;;;;;;29.80;17.02;;;10.80;73.00;;;;;;5060229;28;20360;-69
2023/12/31 11:15:18;;;;;;;31.58;18.00;;;10.80;72.90;;;;;;5078473;28;20500;-70
2023/12/31 11:18:24;;;;;;;28.67;16.85;;;10.70;72.90;;;;;;5077884;28;20541;-69
2023/12/31 11:21:11;;;;;;;34.92;18.45;;;10.80;72.90;;;;;;5077717;28;20048;-69
2023/12/31 11:23:43;;;;;;;33.83;17.58;;;10.80;73.00;;;;;;5078348;28;20456;-69
2023/12/31 11:26:12;;;;;;;31.40;17.42;;;10.80;73.10;;;;;;5337100;23;20114;-72
2023/12/31 11:28:48;;;;;;;36.25;19.77;;;10.80;73.00;;;;;;5057649;28;20078;-72
2023/12/31 11:31:15;;;;;;;36.78;19.58;;;10.80;72.50;;;;;;5380097;23;20059;-72
2023/12/31 11:33:41;;;;;;;35.67;20.33;;;10.80;72.20;;;;;;5057504;28;20104;-72
2023/12/31 11:36:15;;;;;;;33.63;18.65;;;10.80;72.30;;;;;;5057466;28;20036;-71
2023/12/31 11:38:58;;;;;;;28.98;17.30;;;10.80;72.30;;;;;;5039939;28;20495;-72
2023/12/31 11:41:31;;;;;;;33.35;18.13;;;10.80;71.60;;;;;;5052791;28;20470;-72
2023/12/31 11:43:57;;;;;;;30.97;18.10;;;10.80;71.30;;;;;;5078014;28;20341;-71
2023/12/31 11:46:39;;;;;;;33.35;18.23;;;10.90;70.60;;;;;;5077653;28;20063;-71
2023/12/31 11:49:07;;;;;;;30.90;17.85;;;10.80;70.70;;;;;;5077296;28;20078;-71
2023/12/31 11:51:56;;;;;;;31.55;17.05;;;10.80;70.90;;;;;;5077073;28;20024;-71
2023/12/31 11:54:41;;;;;;;28.83;16.15;;;10.80;70.90;;;;;;5059091;28;20040;-71
2023/12/31 11:57:10;;;;;;;31.95;17.48;;;10.80;71.10;;;;;;5077403;28;20024;-71
2023/12/31 11:59:43;;;;;;;28.60;15.57;;;10.80;70.70;;;;;;5077343;28;20024;-72
2023/12/31 12:02:11;;;;;;;;;;;10.80;71.00;;;;;;5059784;28;20024;-72
2023/12/31 12:04:39;;;;;;;30.77;16.52;;;10.80;70.10;;;;;;5077550;28;19904;-73
2023/12/31 12:07:08;;;;;;;29.75;17.17;;;10.80;69.90;;;;;;5077460;28;20025;-73
2023/12/31 12:09:36;;;;;;;30.67;18.13;;;10.80;70.10;;;;;;5076876;28;20048;-73
2023/12/31 12:12:10;;;;;;;34.47;18.95;;;10.80;70.40;;;;;;5076658;28;20044;-72
2023/12/31 12:14:38;;;;;;;35.90;20.65;;;10.80;70.70;;;;;;5076733;28;20062;-71
2023/12/31 12:17:07;;;;;;;36.88;20.92;;;10.80;71.10;;;;;;5077269;28;20035;-71
2023/12/31 12:19:37;;;;;;;39.83;21.55;;;10.70;71.40;;;;;;5076883;28;20008;-71
2023/12/31 12:22:04;;;;;;;44.78;22.67;;;10.80;71.70;;;;;;5076545;28;20028;-73
2023/12/31 12:24:42;;;;;;;46.65;25.50;;;10.80;71.80;;;;;;5077050;28;20055;-73
2023/12/31 12:27:12;;;;;;;49.08;25.40;;;10.80;71.60;;;;;;5077093;28;20060;-72
2023/12/31 12:29:41;;;;;;;56.63;29.13;;;10.80;71.80;;;;;;5059112;28;20074;-71
2023/12/31 12:32:08;;;;;;;61.47;32.08;;;10.80;71.70;;;;;;5075896;28;20139;-71
2023/12/31 12:34:36;;;;;;;51.95;28.15;;;10.70;71.90;;;;;;5076556;28;20025;-72
2023/12/31 12:37:03;;;;;;;56.20;29.98;;;10.70;72.10;;;;;;5076866;28;20034;-73
2023/12/31 12:39:45;;;;;;;56.30;29.05;;;10.80;72.30;;;;;;5076297;28;20145;-73
2023/12/31 12:42:36;;;;;;;53.45;27.35;;;10.80;72.20;;;;;;5076706;28;20085;-72